createdAt,value
2018-01-01T00:04:21.255Z,0.00
2018-01-01T00:14:50.305Z,0.00
2018-01-01T00:25:19.834Z,0.00
2018-01-01T00:35:48.360Z,0.00
2018-01-01T00:46:17.346Z,0.00
2018-01-01T00:56:46.822Z,0.00
2018-01-01T01:07:15.210Z,0.00
2018-01-01T01:17:44.145Z,0.00
2018-01-01T01:28:14.067Z,0.00
2018-01-01T01:38:41.998Z,0.00
2018-01-01T01:49:10.948Z,0.00
2018-01-01T01:59:39.848Z,0.00
2018-01-01T02:10:08.777Z,0.00
2018-01-01T02:20:37.721Z,0.00
2018-01-01T02:31:06.640Z,0.00
2018-01-01T02:41:35.536Z,0.00
2018-01-01T02:52:04.391Z,0.00
2018-01-01T03:02:33.158Z,0.00
2018-01-01T03:13:01.856Z,0.00
2018-01-01T03:23:30.728Z,0.00
2018-01-01T03:33:59.226Z,0.00
2018-01-01T03:44:27.851Z,0.00
2018-01-01T03:54:56.524Z,0.00
2018-01-01T04:05:25.106Z,0.00
2018-01-01T04:15:53.609Z,0.00
2018-01-01T04:26:22.037Z,0.00
2018-01-01T04:36:50.394Z,0.00
2018-01-01T04:47:19.673Z,0.00
2018-01-01T04:57:46.833Z,0.00
2018-01-01T05:08:15.090Z,0.00
2018-01-01T05:18:42.937Z,0.00
2018-01-01T05:29:10.982Z,0.00
2018-01-01T05:39:39.004Z,0.00
2018-01-01T05:50:06.980Z,0.00
2018-01-01T06:00:35.015Z,0.00
2018-01-01T06:11:03.038Z,0.00
2018-01-01T06:21:31.051Z,0.00
2018-01-01T06:31:59.074Z,0.00
2018-01-01T06:42:27.158Z,0.00
2018-01-01T06:52:55.251Z,4.00
2018-01-01T07:03:23.389Z,8.00
2018-01-01T07:13:51.534Z,56.00
2018-01-01T07:24:19.674Z,200.00
2018-01-01T07:34:47.776Z,444.00
2018-01-01T07:45:16.285Z,592.00
2018-01-01T07:55:43.832Z,988.00
2018-01-01T08:06:11.845Z,1804.00
2018-01-01T08:16:39.879Z,2336.00
2018-01-01T08:27:07.929Z,3496.00
2018-01-01T08:37:36.170Z,5512.00
2018-01-01T08:48:04.540Z,4188.00
2018-01-01T08:58:32.804Z,3812.00
2018-01-01T09:09:01.089Z,5948.00
2018-01-01T09:19:29.660Z,5760.00
2018-01-01T09:29:57.963Z,4580.00
2018-01-01T09:40:26.321Z,5484.00
2018-01-01T09:50:54.460Z,6640.00
2018-01-01T10:01:22.800Z,6632.00
2018-01-01T10:11:51.123Z,7812.00
2018-01-01T10:22:20.152Z,10492.00
2018-01-01T10:23:25.848Z,10408.00
2018-01-01T10:24:32.524Z,11904.00
2018-01-01T10:25:39.719Z,12688.00
2018-01-01T10:26:44.436Z,9920.00
2018-01-01T10:37:13.727Z,3812.00
2018-01-01T10:47:41.803Z,3420.00
2018-01-01T10:58:10.779Z,6144.00
2018-01-01T11:08:39.287Z,5096.00
2018-01-01T11:19:07.343Z,6308.00
2018-01-01T11:29:36.025Z,10760.00
2018-01-01T11:40:05.358Z,4400.00
2018-01-01T11:50:34.409Z,5300.00
2018-01-01T12:01:02.860Z,3724.00
2018-01-01T12:11:31.472Z,9508.00
2018-01-01T12:22:00.221Z,4192.00
2018-01-01T12:32:28.790Z,7532.00
2018-01-01T12:42:57.402Z,2744.00
2018-01-01T12:53:25.962Z,4828.00
2018-01-01T13:03:54.542Z,11164.00
2018-01-01T13:14:23.328Z,7696.00
2018-01-01T13:24:51.659Z,6620.00
2018-01-01T13:35:20.359Z,3724.00
2018-01-01T13:45:48.997Z,2932.00
2018-01-01T13:56:17.585Z,2840.00
2018-01-01T14:06:46.157Z,3032.00
2018-01-01T14:17:14.682Z,2176.00
2018-01-01T14:27:43.177Z,1848.00
2018-01-01T14:38:12.474Z,1548.00
2018-01-01T14:48:40.650Z,944.00
2018-01-01T15:00:21.869Z,840.00
2018-01-01T15:10:49.059Z,692.00
2018-01-01T15:21:16.785Z,272.00
2018-01-01T15:31:44.977Z,128.00
2018-01-01T15:42:13.181Z,56.00
2018-01-01T15:52:41.373Z,12.00
2018-01-01T16:03:09.548Z,4.00
2018-01-01T16:13:37.660Z,0.00
2018-01-01T16:24:05.745Z,0.00
2018-01-01T16:34:33.815Z,0.00
2018-01-01T16:45:01.897Z,0.00
2018-01-01T16:55:30.402Z,0.00
2018-01-01T17:05:57.905Z,0.00
2018-01-01T17:16:25.872Z,0.00
2018-01-01T17:26:53.840Z,0.00
2018-01-01T17:37:21.794Z,0.00
2018-01-01T17:47:49.736Z,0.00
2018-01-01T17:58:17.677Z,0.00
2018-01-01T18:08:45.618Z,0.00
2018-01-01T18:19:13.601Z,0.00
2018-01-01T18:29:41.491Z,0.00
2018-01-01T18:40:09.357Z,0.00
2018-01-01T18:50:37.268Z,0.00
2018-01-01T19:01:05.181Z,0.00
2018-01-01T19:11:33.095Z,0.00
2018-01-01T19:22:01.528Z,0.00
2018-01-01T19:32:28.976Z,0.00
2018-01-01T19:42:56.906Z,0.00
2018-01-01T19:53:24.819Z,0.00
2018-01-01T20:03:52.762Z,0.00
2018-01-01T20:14:20.702Z,0.00
2018-01-01T20:24:48.664Z,0.00
2018-01-01T20:35:16.638Z,0.00
2018-01-01T20:45:44.570Z,0.00
2018-01-01T20:56:12.594Z,0.00
2018-01-01T21:06:40.500Z,0.00
2018-01-01T21:17:08.486Z,0.00
2018-01-01T21:27:36.954Z,0.00
2018-01-01T21:38:04.949Z,0.00
2018-01-01T21:48:32.460Z,0.00
2018-01-01T21:59:00.483Z,0.00
2018-01-01T22:09:28.483Z,0.00
2018-01-01T22:19:56.493Z,0.00
2018-01-01T22:30:24.517Z,0.00
2018-01-01T22:40:52.526Z,0.00
2018-01-01T22:51:22.200Z,0.00
2018-01-01T23:01:49.059Z,0.00
2018-01-01T23:12:17.015Z,0.00
2018-01-01T23:22:44.462Z,0.00
2018-01-01T23:33:12.376Z,0.00
2018-01-01T23:43:40.784Z,0.00
2018-01-01T23:54:08.693Z,0.00
